Time;durP1;ratioP1;P1;durP2;ratioP2;P2;SDS_P1;SDS_P2;PMS_P1;PMS_P2;Temp;Humidity;BMP_temperature;BMP_pressure;BME280_temperature;BME280_humidity;BME280_pressure;Samples;Min_cycle;Max_cycle;Signal;HPM_P1;HPM_P2
2023/09/24 00:01:00;;;;;;;8.50;4.40;;;;;;;17.38;100.00;100391.88;105224;1256;72842;-53
2023/09/24 00:03:27;;;;;;;5.80;4.50;;;;;;;17.37;100.00;100393.73;105597;1254;61743;-52
2023/09/24 00:05:55;;;;;;;5.60;4.80;;;;;;;17.36;100.00;100396.52;104724;1254;162086;-52
2023/09/24 00:09:56;;;;;;;6.00;5.60;;;;;;;17.30;100.00;100411.80;101929;1295;599762;-52
2023/09/24 00:12:23;;;;;;;8.10;5.40;;;;;;;17.28;100.00;100410.84;104816;1267;60045;-53
2023/09/24 00:14:50;;;;;;;10.30;5.40;;;;;;;17.26;100.00;100407.89;103988;1272;59833;-54
2023/09/24 00:17:18;;;;;;;6.10;4.50;;;;;;;17.25;100.00;100406.76;104557;1269;71058;-53
2023/09/24 00:19:46;;;;;;;5.80;5.20;;;;;;;17.22;100.00;100409.83;104046;1267;66193;-53
2023/09/24 00:22:13;;;;;;;10.00;4.60;;;;;;;17.19;100.00;100409.83;103968;1267;70729;-54
2023/09/24 00:24:42;;;;;;;7.00;4.70;;;;;;;17.15;100.00;100410.48;104108;1266;142709;-53
2023/09/24 00:27:10;;;;;;;7.00;4.70;;;;;;;17.11;100.00;100408.91;104122;1262;60111;-52
2023/09/24 00:29:37;;;;;;;6.90;4.70;;;;;;;17.07;100.00;100415.33;104439;1257;71058;-53
2023/09/24 00:32:04;;;;;;;5.90;5.30;;;;;;;17.04;100.00;100415.34;104417;1256;65670;-53
2023/09/24 00:34:32;;;;;;;6.60;3.90;;;;;;;17.00;100.00;100415.40;104564;1260;70676;-54
2023/09/24 00:36:59;;;;;;;5.10;4.60;;;;;;;16.97;100.00;100413.98;104713;1257;61725;-53
2023/09/24 00:39:27;;;;;;;5.30;4.60;;;;;;;16.95;100.00;100411.19;104544;1262;59996;-51
2023/09/24 00:41:55;;;;;;;10.90;4.60;;;;;;;16.94;100.00;100410.86;104571;1261;73019;-53
2023/09/24 00:44:23;;;;;;;4.80;4.10;;;;;;;16.93;100.00;100413.13;105742;1262;65792;-52
2023/09/24 00:46:51;;;;;;;4.80;4.40;;;;;;;16.93;100.00;100416.42;104483;1256;72753;-53
2023/09/24 00:49:18;;;;;;;7.70;3.90;;;;;;;16.92;100.00;100418.85;104433;1262;60385;-53
2023/09/24 00:51:48;;;;;;;8.90;5.70;;;;;;;16.90;100.00;100413.14;104857;1257;60189;-53
2023/09/24 00:54:15;;;;;;;6.00;5.50;;;;;;;16.89;100.00;100413.96;104896;1260;71276;-53
2023/09/24 00:56:43;;;;;;;6.90;5.50;;;;;;;16.87;100.00;100411.71;104546;1260;68210;-54
2023/09/24 00:59:10;;;;;;;11.70;6.90;;;;;;;16.84;100.00;100413.90;104953;1262;72718;-52
2023/09/24 01:01:38;;;;;;;6.40;5.90;;;;;;;16.80;100.00;100414.16;104590;1259;60073;-52
2023/09/24 01:04:05;;;;;;;7.60;5.40;;;;;;;16.77;100.00;100420.00;104889;1258;59676;-53
2023/09/24 01:06:34;;;;;;;7.00;6.00;;;;;;;16.73;100.00;100419.16;104153;1264;75613;-54
2023/09/24 01:09:04;;;;;;;5.30;4.00;;;;;;;16.71;100.00;100417.66;104573;1260;67507;-53
2023/09/24 01:11:33;;;;;;;4.30;3.90;;;;;;;16.69;100.00;100419.25;104332;1260;72466;-52
2023/09/24 01:14:01;;;;;;;5.30;3.40;;;;;;;16.67;100.00;100418.86;104813;1260;63088;-52
2023/09/24 01:16:29;;;;;;;6.00;4.10;;;;;;;16.64;100.00;100419.86;104547;1260;60514;-54
2023/09/24 01:18:56;;;;;;;5.60;5.20;;;;;;;16.62;100.00;100419.62;104485;1260;73134;-53
2023/09/24 01:21:26;;;;;;;5.50;4.90;;;;;;;16.62;100.00;100418.41;104490;1259;66936;-54
2023/09/24 01:23:55;;;;;;;6.70;4.60;;;;;;;16.61;100.00;100415.36;104358;1260;71471;-53
2023/09/24 01:26:25;;;;;;;5.10;4.70;;;;;;;16.61;100.00;100419.53;106495;1260;61720;-53
2023/09/24 01:28:52;;;;;;;9.50;5.00;;;;;;;16.61;100.00;100421.67;104629;1260;60093;-54
2023/09/24 01:31:20;;;;;;;5.30;4.40;;;;;;;16.62;100.00;100416.39;104498;1259;73590;-53
2023/09/24 01:33:48;;;;;;;5.40;4.90;;;;;;;16.62;100.00;100412.05;104420;1264;67398;-53
2023/09/24 01:36:18;;;;;;;8.70;4.90;;;;;;;16.61;100.00;100414.98;104616;1263;71440;-53
2023/09/24 01:38:47;;;;;;;5.10;4.60;;;;;;;16.61;100.00;100417.71;104446;1264;61752;-53
2023/09/24 01:41:15;;;;;;;9.80;5.90;;;;;;;16.61;100.00;100412.29;104806;1262;59916;-53
2023/09/24 01:43:42;;;;;;;7.70;5.20;;;;;;;16.60;100.00;100407.95;104502;1260;73102;-53
2023/09/24 01:46:13;;;;;;;6.60;5.10;;;;;;;16.58;100.00;100405.34;104906;1258;65835;-51
2023/09/24 01:48:47;;;;;;;4.70;4.10;;;;;;;16.57;100.00;100405.45;105337;1260;71443;-51
2023/09/24 01:51:14;;;;;;;8.10;5.30;;;;;;;16.55;100.00;100409.52;104575;1259;61905;-50
2023/09/24 01:53:42;;;;;;;9.00;5.10;;;;;;;16.53;100.00;100406.94;104648;1260;59734;-51
2023/09/24 01:56:10;;;;;;;5.10;4.60;;;;;;;16.51;100.00;100405.08;104509;1260;71905;-53
2023/09/24 01:58:37;;;;;;;7.80;4.90;;;;;;;16.50;100.00;100408.59;104342;1260;68929;-51
2023/09/24 02:01:07;;;;;;;6.90;4.90;;;;;;;16.50;100.00;100411.49;106849;1260;72700;-54
2023/09/24 02:03:36;;;;;;;6.70;5.10;;;;;;;16.51;100.00;100418.32;104405;1260;60688;-49
2023/09/24 02:06:05;;;;;;;6.10;5.60;;;;;;;16.50;100.00;100419.08;107578;1262;60088;-52
2023/09/24 02:08:32;;;;;;;7.70;5.90;;;;;;;16.49;100.00;100419.52;108631;1259;71590;-51
2023/09/24 02:11:00;;;;;;;7.50;6.00;;;;;;;16.47;100.00;100417.33;108623;1259;68666;-54
2023/09/24 02:13:28;;;;;;;10.70;6.90;;;;;;;16.45;100.00;100424.16;108511;1260;70841;-51
2023/09/24 02:15:56;;;;;;;5.50;4.50;;;;;;;16.40;100.00;100423.70;108606;1259;60495;-51
2023/09/24 02:18:25;;;;;;;5.20;4.80;;;;;;;16.36;100.00;100423.06;108449;1265;59940;-52
2023/09/24 02:20:54;;;;;;;5.20;4.80;;;;;;;16.32;100.00;100429.30;108635;1260;73218;-52
2023/09/24 02:23:22;;;;;;;5.70;3.30;;;;;;;16.28;100.00;100426.29;108586;1259;66837;-51
2023/09/24 02:25:50;;;;;;;9.50;4.60;;;;;;;16.25;100.00;100430.44;108575;1259;71764;-52
2023/09/24 02:28:18;;;;;;;5.00;4.50;;;;;;;16.22;100.00;100431.88;108578;1259;60634;-53
2023/09/24 02:30:47;;;;;;;10.40;5.00;;;;;;;16.21;100.00;100435.38;106426;1260;59750;-51
2023/09/24 02:33:15;;;;;;;8.90;5.20;;;;;;;16.20;100.00;100432.21;108648;1259;72226;-52
2023/09/24 02:35:43;;;;;;;5.60;4.50;;;;;;;16.19;100.00;100428.48;108570;1259;65768;-51
2023/09/24 02:38:10;;;;;;;7.80;4.30;;;;;;;16.18;100.00;100428.14;108488;1259;71527;-52
2023/09/24 02:40:38;;;;;;;3.80;3.40;;;;;;;16.19;100.00;100428.45;108538;1260;61739;-51
2023/09/24 02:43:06;;;;;;;6.30;3.50;;;;;;;16.18;100.00;100425.98;108588;1259;61789;-52
2023/09/24 02:45:34;;;;;;;7.40;5.20;;;;;;;16.16;100.00;100419.59;108622;1259;75193;-53
2023/09/24 02:48:04;;;;;;;5.80;5.10;;;;;;;16.12;100.00;100424.33;105178;1264;67317;-50
2023/09/24 02:50:32;;;;;;;6.70;4.90;;;;;;;16.08;100.00;100425.13;104408;1259;72745;-52
2023/09/24 02:53:02;;;;;;;8.10;5.00;;;;;;;16.05;100.00;100423.73;104301;1260;59747;-53
2023/09/24 02:55:29;;;;;;;5.90;5.40;;;;;;;16.00;100.00;100424.72;104517;1265;59710;-49
2023/09/24 02:57:57;;;;;;;5.60;4.70;;;;;;;15.96;100.00;100422.11;104449;1259;73100;-50
2023/09/24 03:00:41;;;;;;;5.20;4.60;;;;;;;15.90;100.00;100419.70;104456;1260;66779;-52
2023/09/24 03:03:10;;;;;;;3.80;3.20;;;;;;;15.84;100.00;100420.97;104783;1262;71476;-54
2023/09/24 03:05:38;;;;;;;7.70;5.00;;;;;;;15.78;100.00;100421.52;104837;1259;62276;-52
2023/09/24 03:08:09;;;;;;;7.30;3.70;;;;;;;15.74;100.00;100423.55;105021;1265;59744;-50
2023/09/24 03:10:37;;;;;;;8.50;4.20;;;;;;;15.71;100.00;100425.36;104428;1265;72215;-51
2023/09/24 03:13:04;;;;;;;6.60;4.60;;;;;;;15.70;100.00;100428.15;104357;1260;66940;-49
2023/09/24 03:15:33;;;;;;;5.50;4.10;;;;;;;15.71;100.00;100435.89;106523;1259;72699;-51
2023/09/24 03:18:01;;;;;;;5.80;4.20;;;;;;;15.73;100.00;100439.05;104309;1259;60482;-52
2023/09/24 03:20:29;;;;;;;4.80;3.80;;;;;;;15.73;100.00;100440.79;104715;1260;59988;-51
2023/09/24 03:23:02;;;;;;;6.30;4.90;;;;;;;15.74;100.00;100440.40;104634;1260;72196;-54
2023/09/24 03:25:30;;;;;;;4.10;3.80;;;;;;;15.73;100.00;100441.70;104347;1260;65836;-51
2023/09/24 03:27:58;;;;;;;8.20;4.80;;;;;;;15.73;100.00;100443.38;105790;1264;72736;-51
2023/09/24 03:30:25;;;;;;;6.30;3.40;;;;;;;15.71;100.00;100450.73;104295;1259;61820;-52
2023/09/24 03:32:54;;;;;;;3.80;3.50;;;;;;;15.68;100.00;100448.14;104247;1260;60150;-51
2023/09/24 03:35:24;;;;;;;4.40;4.10;;;;;;;15.68;100.00;100450.86;105259;1259;75324;-52
2023/09/24 03:37:54;;;;;;;11.00;4.70;;;;;;;15.71;100.00;100454.86;104253;1260;66021;-50
2023/09/24 03:40:23;;;;;;;5.90;3.90;;;;;;;15.72;100.00;100452.10;105010;1260;71411;-52
2023/09/24 03:42:51;;;;;;;6.10;5.40;;;;;;;15.73;100.00;100451.34;104401;1264;61903;-52
2023/09/24 03:45:19;;;;;;;6.60;4.30;;;;;;;15.73;100.00;100457.07;104610;1259;59916;-54
2023/09/24 03:47:48;;;;;;;5.90;5.20;;;;;;;15.72;100.00;100454.05;104339;1265;72172;-53
2023/09/24 03:50:19;;;;;;;8.50;4.50;;;;;;;15.72;100.00;100456.63;104656;1260;67913;-54
2023/09/24 03:52:48;;;;;;;8.20;5.10;;;;;;;15.71;100.00;100462.48;104370;1259;71153;-52
2023/09/24 03:55:16;;;;;;;8.10;5.00;;;;;;;15.70;100.00;100471.77;104400;1262;62214;-52
2023/09/24 03:57:44;;;;;;;6.70;5.50;;;;;;;15.70;100.00;100473.77;104581;1259;59998;-54
2023/09/24 04:00:18;;;;;;;5.00;4.60;;;;;;;15.71;100.00;100479.11;105180;1260;73027;-54
2023/09/24 04:02:47;;;;;;;5.40;4.60;;;;;;;15.75;100.00;100474.36;104709;1260;67512;-51
2023/09/24 04:05:19;;;;;;;8.80;6.30;;;;;;;15.79;100.00;100473.77;104576;1263;72762;-50
2023/09/24 04:07:49;;;;;;;9.50;5.90;;;;;;;15.83;100.00;100479.84;104708;1265;62405;-49
2023/09/24 04:10:19;;;;;;;9.30;6.30;;;;;;;15.87;100.00;100480.31;104465;1260;60513;-52
2023/09/24 04:12:49;;;;;;;8.20;5.90;;;;;;;15.92;100.00;100488.74;104326;1260;73020;-53
2023/09/24 04:15:20;;;;;;;6.00;5.40;;;;;;;15.96;100.00;100487.63;107086;1260;66008;-54
2023/09/24 04:17:51;;;;;;;6.20;5.70;;;;;;;16.00;100.00;100488.25;105773;1260;70494;-52
2023/09/24 04:20:20;;;;;;;7.20;5.90;;;;;;;16.04;100.00;100489.64;104462;1260;61756;-49
2023/09/24 04:22:48;;;;;;;6.80;5.10;;;;;;;16.07;100.00;100487.83;104450;1257;60459;-52
2023/09/24 04:25:22;;;;;;;11.50;5.90;;;;;;;16.11;100.00;100489.41;104407;1263;72627;-51
2023/09/24 04:27:50;;;;;;;;;;;;;;;16.15;100.00;100492.95;104433;1263;67047;-48
2023/09/24 04:30:19;;;;;;;7.40;6.60;;;;;;;16.19;100.00;100499.23;105046;1260;71636;-51
2023/09/24 04:32:54;;;;;;;6.00;5.20;;;;;;;16.21;100.00;100498.24;105651;1259;61634;-49
2023/09/24 04:35:21;;;;;;;8.60;5.20;;;;;;;16.24;100.00;100500.21;105650;1261;60562;-50
2023/09/24 04:37:50;;;;;;;7.60;5.70;;;;;;;16.28;100.00;100498.70;104497;1257;73818;-49
2023/09/24 04:40:18;;;;;;;20.50;6.10;;;;;;;16.33;100.00;100499.33;104463;1264;67575;-52
2023/09/24 04:42:47;;;;;;;16.40;6.90;;;;;;;16.38;100.00;100504.10;105695;1260;71388;-51
2023/09/24 04:45:14;;;;;;;10.80;5.80;;;;;;;16.43;100.00;100507.57;104981;1259;62824;-52
2023/09/24 04:47:42;;;;;;;7.80;7.00;;;;;;;16.52;100.00;100510.85;104443;1259;60453;-54
2023/09/24 04:50:12;;;;;;;16.40;7.30;;;;;;;16.59;100.00;100517.98;104856;1257;73911;-52
2023/09/24 04:52:41;;;;;;;21.30;8.30;;;;;;;16.68;100.00;100527.29;106034;1257;66730;-51
2023/09/24 04:55:09;;;;;;;54.50;11.20;;;;;;;16.77;100.00;100526.01;104961;1262;73150;-50
2023/09/24 04:57:37;;;;;;;18.80;6.70;;;;;;;16.85;100.00;100527.66;104782;1256;60910;-52
2023/09/24 05:00:05;;;;;;;13.60;7.30;;;;;;;16.93;100.00;100530.98;104728;1256;63108;-50
2023/09/24 05:02:32;;;;;;;24.50;7.60;;;;;;;17.01;100.00;100529.59;105815;1262;73927;-52
2023/09/24 05:05:00;;;;;;;18.90;6.40;;;;;;;17.07;100.00;100535.55;108762;1256;67035;-51
2023/09/24 05:07:27;;;;;;;12.40;5.50;;;;;;;17.14;100.00;100542.39;108869;1257;72381;-51
2023/09/24 05:09:56;;;;;;;7.80;4.50;;;;;;;17.21;100.00;100547.36;108715;1257;61856;-55
2023/09/24 05:12:23;;;;;;;10.30;6.20;;;;;;;17.29;100.00;100545.77;108737;1256;60162;-53
2023/09/24 05:14:50;;;;;;;6.00;4.50;;;;;;;17.36;100.00;100546.75;108654;1262;73344;-52
2023/09/24 05:17:18;;;;;;;14.20;5.60;;;;;;;17.44;100.00;100546.45;108710;1256;67135;-55
2023/09/24 05:19:45;;;;;;;8.60;5.70;;;;;;;17.52;100.00;100551.89;108779;1257;71500;-53
2023/09/24 05:22:13;;;;;;;6.70;4.60;;;;;;;17.61;100.00;100549.85;108827;1257;60455;-51
2023/09/24 05:24:40;;;;;;;10.70;5.60;;;;;;;17.70;100.00;100552.34;108793;1257;60495;-52
2023/09/24 05:27:07;;;;;;;5.90;5.30;;;;;;;17.80;100.00;100551.77;108726;1257;72628;-52
2023/09/24 05:29:35;;;;;;;7.10;3.40;;;;;;;17.89;100.00;100546.96;108760;1257;66148;-52
2023/09/24 05:32:02;;;;;;;7.70;5.10;;;;;;;17.99;100.00;100543.94;108790;1257;73174;-52
2023/09/24 05:34:30;;;;;;;4.60;4.20;;;;;;;18.10;100.00;100546.45;108669;1260;60524;-51
2023/09/24 05:36:57;;;;;;;10.00;4.30;;;;;;;18.22;100.00;100543.50;108676;1259;59131;-53
2023/09/24 05:39:25;;;;;;;11.60;5.20;;;;;;;18.32;100.00;100544.60;108708;1257;74354;-53
2023/09/24 05:41:52;;;;;;;10.50;5.30;;;;;;;18.42;100.00;100552.83;109057;1254;67044;-52
2023/09/24 05:44:20;;;;;;;16.00;5.40;;;;;;;18.48;100.00;100546.73;108825;1254;70548;-52
2023/09/24 05:46:47;;;;;;;5.90;5.30;;;;;;;18.56;100.00;100546.98;109019;1257;60113;-54
2023/09/24 05:49:16;;;;;;;6.30;5.10;;;;;;;18.63;100.00;100551.27;106789;1259;59263;-51
2023/09/24 05:51:43;;;;;;;9.10;4.50;;;;;;;18.68;100.00;100550.86;104790;1257;72666;-51
2023/09/24 05:54:11;;;;;;;11.40;4.70;;;;;;;18.73;100.00;100548.16;107171;1258;65722;-51
2023/09/24 05:56:38;;;;;;;12.90;5.50;;;;;;;18.80;100.00;100544.80;104735;1254;72469;-54
2023/09/24 05:59:06;;;;;;;9.40;5.30;;;;;;;18.87;100.00;100548.10;104843;1259;60498;-53
2023/09/24 06:01:33;;;;;;;8.70;5.40;;;;;;;18.96;100.00;100553.48;104657;1255;60597;-52
2023/09/24 06:04:01;;;;;;;6.40;3.50;;;;;;;19.05;100.00;100555.92;108156;1254;72682;-52
2023/09/24 06:06:28;;;;;;;5.10;4.30;;;;;;;19.14;100.00;100557.44;106300;1257;66760;-53
2023/09/24 06:08:57;;;;;;;8.80;4.80;;;;;;;19.24;100.00;100553.84;104900;1260;72702;-52
2023/09/24 06:11:24;;;;;;;8.70;4.90;;;;;;;19.32;100.00;100555.08;105823;1259;60429;-51
2023/09/24 06:13:52;;;;;;;6.50;3.90;;;;;;;19.40;100.00;100553.39;104711;1254;60572;-51
2023/09/24 06:16:19;;;;;;;6.00;4.30;;;;;;;19.49;100.00;100559.70;104789;1260;72628;-52
2023/09/24 06:18:47;;;;;;;7.70;4.90;;;;;;;19.54;100.00;100552.95;104850;1257;65941;-51
2023/09/24 06:21:18;;;;;;;10.00;4.30;;;;;;;19.62;100.00;100555.84;104759;1260;72768;-51
2023/09/24 06:23:46;;;;;;;10.80;5.30;;;;;;;19.68;100.00;100551.02;104820;1259;60518;-53
2023/09/24 06:26:14;;;;;;;13.90;5.50;;;;;;;19.75;100.00;100551.61;104660;1254;60533;-53
2023/09/24 06:28:41;;;;;;;7.70;4.70;;;;;;;19.81;100.00;100553.20;104751;1254;71668;-50
2023/09/24 06:31:20;;;;;;;14.40;4.90;;;;;;;19.88;100.00;100554.13;104681;1259;69423;-52
2023/09/24 06:33:48;;;;;;;8.40;4.00;;;;;;;19.95;100.00;100554.32;106624;1260;71259;-51
2023/09/24 06:36:16;;;;;;;15.20;5.20;;;;;;;20.02;100.00;100563.09;104681;1260;60537;-50
2023/09/24 06:38:44;;;;;;;11.20;4.30;;;;;;;20.10;100.00;100561.55;105116;1254;61162;-52
2023/09/24 06:41:12;;;;;;;7.70;3.00;;;;;;;20.18;100.00;100561.27;104798;1254;72612;-55
2023/09/24 06:43:39;;;;;;;8.20;3.30;;;;;;;20.28;100.00;100565.64;104826;1254;68056;-51
2023/09/24 06:46:07;;;;;;;4.90;3.30;;;;;;;20.38;100.00;100563.80;104837;1261;72774;-52
2023/09/24 06:48:34;;;;;;;7.10;3.40;;;;;;;20.47;100.00;100565.67;105239;1260;60788;-53
2023/09/24 06:51:09;;;;;;;4.80;3.30;;;;;;;20.55;100.00;100571.96;105684;1259;60756;-53
2023/09/24 06:53:37;;;;;;;;;;;;;;;20.65;100.00;100567.77;105031;1259;73764;-50
2023/09/24 06:56:07;;;;;;;10.20;2.90;;;;;;;20.72;100.00;100567.71;105362;1254;66122;-53
2023/09/24 06:58:35;;;;;;;6.10;3.30;;;;;;;20.80;100.00;100570.58;104679;1254;71475;-52
2023/09/24 07:01:06;;;;;;;5.50;2.40;;;;;;;20.89;100.00;100572.10;105111;1259;60899;-50
2023/09/24 07:03:34;;;;;;;5.00;2.70;;;;;;;20.97;100.00;100572.55;105627;1259;60510;-53
2023/09/24 07:06:06;;;;;;;10.30;2.90;;;;;;;21.04;100.00;100568.33;105127;1260;73929;-52
2023/09/24 07:08:34;;;;;;;10.00;2.70;;;;;;;21.12;100.00;100570.26;104831;1254;64931;-50
2023/09/24 07:11:22;;;;;;;8.10;2.30;;;;;;;21.21;100.00;100571.04;105096;1260;72710;-50
2023/09/24 07:13:50;;;;;;;4.50;1.90;;;;;;;21.32;100.00;100579.14;104815;1260;60936;-53
2023/09/24 07:16:22;;;;;;;6.20;2.20;;;;;;;21.41;100.00;100576.36;105312;1253;60569;-53
2023/09/24 07:18:50;;;;;;;9.00;2.30;;;;;;;21.50;100.00;100576.50;104984;1256;74333;-52
2023/09/24 07:21:24;;;;;;;5.70;1.90;;;;;;;21.59;100.00;100572.69;105527;1260;65825;-52
2023/09/24 07:24:02;;;;;;;9.20;1.80;;;;;;;21.69;100.00;100573.88;105133;1259;73103;-54
2023/09/24 07:26:29;;;;;;;3.30;1.50;;;;;;;21.78;100.00;100576.40;104836;1258;61057;-52
2023/09/24 07:28:57;;;;;;;5.10;2.10;;;;;;;21.87;100.00;100576.02;105185;1259;60860;-51
2023/09/24 07:31:25;;;;;;;7.90;2.80;;;;;;;21.96;100.00;100582.10;104684;1254;72664;-51
2023/09/24 07:33:57;;;;;;;3.70;1.40;;;;;;;22.05;100.00;100577.17;104910;1259;65520;-55
2023/09/24 07:36:26;;;;;;;9.40;2.20;;;;;;;22.13;100.00;100575.21;104656;1260;71452;-53
2023/09/24 07:38:56;;;;;;;7.10;2.00;;;;;;;22.22;100.00;100573.50;104819;1257;61036;-54
2023/09/24 07:41:24;;;;;;;8.30;2.70;;;;;;;22.32;100.00;100573.65;105134;1262;60556;-55
2023/09/24 07:43:51;;;;;;;19.00;3.60;;;;;;;22.41;100.00;100571.58;104673;1259;73945;-54
2023/09/24 07:46:19;;;;;;;3.20;2.60;;;;;;;22.49;100.00;100562.48;104816;1258;66917;-53
2023/09/24 07:48:48;;;;;;;9.30;2.70;;;;;;;22.56;100.00;100564.06;104686;1257;72479;-53
2023/09/24 07:51:16;;;;;;;13.30;2.90;;;;;;;22.62;100.00;100559.11;105557;1256;60447;-52
2023/09/24 07:53:45;;;;;;;7.80;2.40;;;;;;;22.70;100.00;100556.80;105746;1254;60453;-53
2023/09/24 07:56:13;;;;;;;3.20;1.60;;;;;;;22.78;100.00;100560.54;105817;1254;73888;-53
2023/09/24 07:58:41;;;;;;;7.60;2.30;;;;;;;22.88;100.00;100566.27;104492;1262;66146;-54
2023/09/24 08:01:10;;;;;;;2.10;1.20;;;;;;;22.96;100.00;100567.95;104869;1254;72722;-52
2023/09/24 08:03:37;;;;;;;3.80;1.40;;;;;;;23.04;100.00;100573.44;108936;1254;60518;-51
2023/09/24 08:06:05;;;;;;;9.80;1.80;;;;;;;23.12;100.00;100572.55;108948;1254;58867;-50
2023/09/24 08:08:34;;;;;;;10.70;1.70;;;;;;;23.21;100.00;100575.22;107696;1260;75836;-56
2023/09/24 08:11:18;;;;;;;7.40;1.60;;;;;;;23.30;100.00;100576.77;108870;1259;65802;-55
2023/09/24 08:13:45;;;;;;;5.40;1.90;;;;;;;23.40;100.00;100579.60;105499;1259;71757;-55
2023/09/24 08:16:16;;;;;;;3.20;1.50;;;;;;;23.49;100.00;100571.48;109003;1259;60074;-51
2023/09/24 08:18:44;;;;;;;5.60;1.30;;;;;;;23.59;100.00;100571.52;108827;1257;59701;-52
2023/09/24 08:21:12;;;;;;;6.10;2.20;;;;;;;23.68;100.00;100572.67;108950;1254;73900;-53
2023/09/24 08:23:39;;;;;;;8.60;2.90;;;;;;;23.78;100.00;100566.70;108845;1254;65079;-51
2023/09/24 08:26:07;;;;;;;3.20;1.30;;;;;;;23.87;100.00;100567.16;108884;1257;72751;-52
2023/09/24 08:28:34;;;;;;;13.70;1.80;;;;;;;23.95;100.00;100568.38;108976;1254;60191;-53
2023/09/24 08:31:11;;;;;;;3.70;1.40;;;;;;;24.03;100.00;100574.61;107143;1260;60606;-54
2023/09/24 08:33:39;;;;;;;6.60;2.10;;;;;;;24.11;100.00;100576.61;104775;1259;73954;-54
2023/09/24 08:36:10;;;;;;;16.80;4.10;;;;;;;24.18;100.00;100578.05;104766;1255;67619;-51
2023/09/24 08:38:38;;;;;;;7.50;2.40;;;;;;;24.22;100.00;100575.52;104799;1260;71475;-54
2023/09/24 08:41:12;;;;;;;7.80;2.10;;;;;;;24.25;100.00;100579.27;104904;1260;60499;-53
2023/09/24 08:43:41;;;;;;;7.40;2.40;;;;;;;24.29;100.00;100582.38;108826;1255;60105;-51
2023/09/24 08:46:10;;;;;;;7.70;2.00;;;;;;;24.34;100.00;100580.94;106835;1254;73905;-54
2023/09/24 08:48:39;;;;;;;4.60;2.40;;;;;;;24.39;100.00;100587.44;105204;1259;67059;-52
2023/09/24 08:51:09;;;;;;;3.00;1.40;;;;;;;24.45;100.00;100592.96;105044;1260;71545;-54
2023/09/24 08:53:37;;;;;;;8.40;1.90;;;;;;;24.50;100.00;100595.25;105092;1259;60626;-52
2023/09/24 08:56:05;;;;;;;6.70;2.20;;;;;;;24.52;100.00;100597.46;104912;1255;60426;-53
2023/09/24 08:58:32;;;;;;;7.40;1.40;;;;;;;24.56;100.00;100599.80;104754;1260;74232;-55
2023/09/24 09:01:00;;;;;;;5.30;1.30;;;;;;;24.63;100.00;100606.70;104730;1254;66914;-55
2023/09/24 09:03:28;;;;;;;5.30;1.40;;;;;;;24.71;100.00;100599.38;105004;1257;73556;-55
2023/09/24 09:05:56;;;;;;;20.70;2.60;;;;;;;24.77;100.00;100594.91;105061;1262;60540;-54
2023/09/24 09:08:23;;;;;;;7.30;1.70;;;;;;;24.84;100.00;100597.88;104778;1259;60956;-53
2023/09/24 09:10:50;;;;;;;2.50;1.60;;;;;;;24.92;100.00;100595.92;104847;1253;74439;-54
2023/09/24 09:13:18;;;;;;;4.90;1.40;;;;;;;24.98;100.00;100599.94;104784;1257;65687;-55
2023/09/24 09:15:50;;;;;;;10.30;2.00;;;;;;;25.05;100.00;100602.60;104980;1258;73649;-52
2023/09/24 09:18:22;;;;;;;4.10;1.10;;;;;;;25.11;100.00;100608.18;104656;1260;60520;-53
2023/09/24 09:20:58;;;;;;;4.00;1.10;;;;;;;25.20;100.00;100611.77;105023;1260;60869;-54
2023/09/24 09:23:40;;;;;;;5.40;1.00;;;;;;;25.28;100.00;100611.94;108867;1254;72687;-54
2023/09/24 09:26:08;;;;;;;3.30;1.00;;;;;;;25.37;100.00;100615.77;108812;1254;65637;-52
2023/09/24 09:28:35;;;;;;;5.60;1.10;;;;;;;25.47;100.00;100617.45;108996;1254;73746;-56
2023/09/24 09:31:10;;;;;;;9.90;1.10;;;;;;;25.54;100.00;100617.98;106024;1260;60569;-55
2023/09/24 09:33:42;;;;;;;2.40;1.20;;;;;;;25.62;100.00;100620.20;104978;1254;60941;-53
2023/09/24 09:36:19;;;;;;;4.60;1.40;;;;;;;25.69;100.00;100620.46;105532;1260;74865;-52
2023/09/24 09:38:47;;;;;;;8.20;1.60;;;;;;;25.75;100.00;100623.70;104851;1260;67401;-54
2023/09/24 09:41:19;;;;;;;7.40;1.20;;;;;;;25.81;100.00;100630.27;104944;1259;72694;-51
2023/09/24 09:43:47;;;;;;;8.10;1.20;;;;;;;25.86;100.00;100628.89;105303;1260;60333;-54
2023/09/24 09:46:20;;;;;;;3.10;1.50;;;;;;;25.90;100.00;100631.92;105669;1256;60645;-53
2023/09/24 09:49:02;;;;;;;4.80;1.50;;;;;;;25.96;100.00;100632.24;105726;1255;73928;-52
2023/09/24 09:51:36;;;;;;;8.60;1.30;;;;;;;26.03;100.00;100633.64;105952;1257;67502;-54
2023/09/24 09:54:07;;;;;;;9.30;1.50;;;;;;;26.07;100.00;100633.73;104880;1259;72662;-53
2023/09/24 09:56:38;;;;;;;7.10;1.50;;;;;;;26.11;100.00;100637.38;104776;1254;60553;-55
2023/09/24 09:59:06;;;;;;;5.10;1.20;;;;;;;26.15;100.00;100637.88;105420;1254;60457;-52
2023/09/24 10:01:34;;;;;;;20.20;1.80;;;;;;;26.19;100.00;100640.31;104895;1264;72610;-53
2023/09/24 10:04:03;;;;;;;5.00;1.10;;;;;;;26.20;100.00;100639.82;104970;1254;67459;-53
2023/09/24 10:06:34;;;;;;;5.10;1.00;;;;;;;26.22;100.00;100645.48;105347;1260;71357;-53
2023/09/24 10:09:21;;;;;;;3.50;1.10;;;;;;;26.23;100.00;100644.45;104852;1261;60775;-55
2023/09/24 10:11:49;;;;;;;5.40;1.40;;;;;;;26.25;100.00;100642.59;105479;1254;60241;-55
2023/09/24 10:14:33;;;;;;;7.90;1.10;;;;;;;26.27;100.00;100647.25;105370;1254;72695;-53
2023/09/24 10:17:17;;;;;;;4.20;1.00;;;;;;;26.28;100.00;100651.54;104895;1256;65874;-53
2023/09/24 10:20:06;;;;;;;5.60;1.10;;;;;;;26.32;100.00;100645.06;104850;1257;71444;-55
2023/09/24 10:22:35;;;;;;;5.80;1.10;;;;;;;26.40;100.00;100646.88;104807;1257;60683;-51
2023/09/24 10:25:32;;;;;;;7.30;1.40;;;;;;;26.48;100.00;100651.42;105102;1254;61658;-54
2023/09/24 10:28:01;;;;;;;4.50;1.00;;;;;;;26.56;100.00;100653.90;104876;1255;73306;-53
2023/09/24 10:31:04;;;;;;;4.20;0.90;;;;;;;26.63;100.00;100652.92;106356;1257;65675;-53
2023/09/24 10:33:51;;;;;;;4.60;1.10;;;;;;;26.73;100.00;100655.79;106062;1257;72742;-53
2023/09/24 10:36:22;;;;;;;3.30;1.10;;;;;;;26.81;100.00;100656.63;104952;1256;60533;-53
2023/09/24 10:39:03;;;;;;;2.70;0.80;;;;;;;26.86;100.00;100657.56;104696;1254;60454;-54
2023/09/24 10:41:32;;;;;;;2.10;1.00;;;;;;;26.92;100.00;100653.50;104904;1257;73887;-53
2023/09/24 10:44:27;;;;;;;5.80;1.20;;;;;;;26.98;100.00;100648.35;106049;1257;66936;-54
2023/09/24 10:46:55;;;;;;;7.20;1.40;;;;;;;27.03;100.00;100651.80;104647;1260;71503;-53
2023/09/24 10:49:26;;;;;;;3.60;1.00;;;;;;;27.08;100.00;100655.52;104628;1259;60396;-54
2023/09/24 10:51:58;;;;;;;4.70;1.00;;;;;;;27.12;100.00;100659.90;104876;1254;60496;-54
2023/09/24 10:54:26;;;;;;;3.30;0.80;;;;;;;27.17;100.00;100660.52;104910;1254;73004;-52
2023/09/24 10:56:53;;;;;;;2.40;0.90;;;;;;;27.20;100.00;100660.59;104682;1257;67001;-52
2023/09/24 10:59:39;;;;;;;4.30;0.90;;;;;;;27.22;100.00;100658.02;105804;1256;71425;-53
2023/09/24 11:02:18;;;;;;;3.00;1.10;;;;;;;27.26;100.00;100659.21;104845;1255;60658;-52
2023/09/24 11:04:48;;;;;;;6.70;1.10;;;;;;;27.30;100.00;100660.67;105428;1260;59867;-53
2023/09/24 11:07:16;;;;;;;4.20;1.20;;;;;;;27.32;100.00;100657.84;104695;1254;74248;-53
2023/09/24 11:09:49;;;;;;;5.80;1.10;;;;;;;27.34;100.00;100655.36;104581;1254;65681;-54
2023/09/24 11:12:17;;;;;;;2.50;0.90;;;;;;;27.39;100.00;100653.09;104798;1254;71488;-53
2023/09/24 11:14:58;;;;;;;2.80;0.90;;;;;;;27.41;100.00;100653.89;104932;1257;60632;-50
2023/09/24 11:17:28;;;;;;;2.90;1.10;;;;;;;27.44;100.00;100657.10;104672;1260;60460;-55
2023/09/24 11:19:56;;;;;;;2.50;1.10;;;;;;;27.45;100.00;100652.73;104688;1254;72623;-56
2023/09/24 11:22:26;;;;;;;3.50;1.00;;;;;;;27.47;100.00;100650.73;104806;1260;67242;-54